FW0974 Weather Reports


Display with metric or nautical units.
time (UTC)temp
F
wind
direction
speed
MPH
gust
MPH
rain 1hr
in
rain 24hr
in
rain mn
in
humidity
%
barometer
mb
20190424181614 88 108 2.0 8.0 0.00 0.00 0.00 38 1015.5
20190424180130 86 64 3.0 8.0 0.00 0.00 0.00 41 1015.5
20190424174639 86 196 1.0 8.0 0.00 0.00 0.00 41 1015.7
20190424173129 85 135 3.0 6.0 0.00 0.00 0.00 43 1016.0
20190424171613 83 29 1.0 7.0 0.00 0.00 0.00 45 1016.2
20190424170055 83 227 5.0 10.0 0.00 0.00 0.00 44 1016.3
20190424164547 82 335 1.0 4.0 0.00 0.00 0.00 49 1016.6
20190424163100 80 330 3.0 7.0 0.00 0.00 0.00 49 1016.8
20190424161611 80 34 2.0 6.0 0.00 0.00 0.00 51 1017.0
20190424160043 81 309 2.0 7.0 0.00 0.00 0.00 51 1017.2
20190424154626 81 75 1.0 4.0 0.00 0.00 0.00 55 1017.4
20190424153100 79 316 3.0 6.0 0.00 0.00 0.00 54 1017.5
20190424151553 78 242 1.0 5.0 0.00 0.00 0.00 58 1017.5
20190424150140 76 316 1.0 6.0 0.00 0.00 0.00 60 1017.5
20190424144558 76 198 2.0 6.0 0.00 0.00 0.00 61 1017.5
20190424143116 74 230 4.0 8.0 0.00 0.00 0.00 62 1017.4
20190424141517 73 178 3.0 7.0 0.00 0.00 0.00 67 1017.4
20190424140011 73 245 3.0 7.0 0.00 0.00 0.00 70 1017.3
20190424134523 72 268 3.0 9.0 0.00 0.00 0.00 72 1017.5
20190424133217 71 223 2.0 6.0 0.00 0.00 0.00 77 1017.5
20190424131705 69 205 2.0 6.0 0.00 0.00 0.00 79 1017.4
20190424130259 68 214 1.0 5.0 0.00 0.00 0.00 82 1017.3
20190424124618 67 210 1.0 4.0 0.00 0.00 0.00 85 1017.0
20190424123126 66 244 0.0 2.0 0.00 0.00 0.00 87 1016.9
20190424121630 65 196 0.0 2.0 0.00 0.00 0.00 89 1016.9
20190424120207 64 292 0.0 0.0 0.00 0.00 0.00 93 1016.9
20190424114743 62 293 0.0 0.0 0.00 0.00 0.00 95 1016.8
20190424113116 59 293 0.0 0.0 0.00 0.00 0.00 95 1016.8
20190424111626 59 293 0.0 0.0 0.00 0.00 0.00 95 1016.6
20190424110134 59 293 0.0 0.0 0.00 0.00 0.00 95 1016.5
20190424104620 59 293 0.0 0.0 0.00 0.00 0.00 95 1016.3
20190424103113 59 293 0.0 0.0 0.00 0.00 0.00 95 1016.0
20190424101632 58 293 0.0 0.0 0.00 0.00 0.00 94 1015.8
20190424100132 59 293 0.0 0.0 0.00 0.00 0.00 94 1015.7
20190424094701 59 293 0.0 0.0 0.00 0.00 0.00 93 1015.7
20190424093158 60 293 0.0 0.0 0.00 0.00 0.00 94 1015.8
20190424091614 60 293 0.0 1.0 0.00 0.00 0.00 94 1015.9
20190424090111 60 210 0.0 0.0 0.00 0.00 0.00 94 1015.8
20190424084559 60 210 0.0 0.0 0.00 0.00 0.00 94 1015.8
20190424083111 60 210 0.0 0.0 0.00 0.00 0.00 93 1015.9
20190424081629 61 210 0.0 0.0 0.00 0.00 0.00 93 1015.8
20190424080149 61 210 0.0 0.0 0.00 0.00 0.00 93 1015.9
20190424074627 61 210 0.0 0.0 0.00 0.00 0.00 92 1015.9
20190424073038 61 210 0.0 0.0 0.00 0.00 0.00 91 1016.0
20190424071542 61 210 0.0 0.0 0.00 0.00 0.00 90 1016.1
20190424070054 62 210 0.0 0.0 0.00 0.00 0.00 89 1016.2
20190424064548 63 210 0.0 0.0 0.00 0.00 0.00 90 1016.3
20190424063022 63 205 0.0 0.0 0.00 0.00 0.00 90 1016.2
20190424061636 63 205 0.0 0.0 0.00 0.00 0.00 89 1016.3
20190424060027 63 205 0.0 0.0 0.00 0.00 0.00 87 1016.3
20190424054536 64 205 0.0 0.0 0.00 0.00 0.00 83 1016.4
20190424053018 65 205 0.0 0.0 0.00 0.00 0.00 82 1016.5
20190424051505 66 205 0.0 1.0 0.00 0.00 0.00 81 1016.5
20190424050005 66 164 0.0 3.0 0.00 0.00 0.00 80 1016.6
20190424044702 67 132 0.0 3.0 0.00 0.00 0.00 79 1016.6
20190424043206 67 169 0.0 2.0 0.00 0.00 0.00 80 1016.7
20190424041841 67 155 0.0 1.0 0.00 0.00 0.00 79 1016.9
20190424040148 68 162 0.0 0.0 0.00 0.00 0.00 76 1017.0
20190424034707 69 242 0.0 2.0 0.00 0.00 0.00 75 1016.9
20190424033117 69 226 0.0 2.0 0.00 0.00 0.00 74 1017.0
20190424031654 70 241 1.0 3.0 0.00 0.00 0.00 72 1017.0
20190424030212 71 148 5.0 11.0 0.00 0.00 0.00 70 1016.9
20190424024636 71 140 2.0 6.0 0.00 0.00 0.00 71 1017.0
20190424023148 71 217 1.0 3.0 0.00 0.00 0.00 70 1017.1
20190424021659 71 132 1.0 5.0 0.00 0.00 0.00 67 1017.0
20190424020200 72 99 3.0 6.0 0.00 0.00 0.00 63 1016.9
20190424014629 73 91 4.0 7.0 0.00 0.00 0.00 58 1016.9
20190424013130 73 74 2.0 6.0 0.00 0.00 0.00 54 1016.8
20190424011633 74 84 2.0 4.0 0.00 0.00 0.00 49 1016.8
20190424010128 75 72 1.0 4.0 0.00 0.00 0.00 46 1016.6
20190424004627 75 74 2.0 4.0 0.00 0.00 0.00 46 1016.5
20190424003140 77 68 1.0 4.0 0.00 0.00 0.00 43 1016.3
20190424001610 78 86 2.0 5.0 0.00 0.00 0.00 42 1016.2
20190424000102 79 68 1.0 5.0 0.00 0.00 0.00 43 1016.0
20190423234739 81 77 4.0 9.0 0.00 0.00 0.00 39 1016.0
20190423233117 82 98 2.0 4.0 0.00 0.00 0.00 38 1015.9
20190423231633 84 106 2.0 5.0 0.00 0.00 0.00 36 1015.8
20190423230051 84 72 4.0 7.0 0.00 0.00 0.00 37 1015.8
20190423224611 84 131 2.0 5.0 0.00 0.00 0.00 36 1015.9
20190423223131 86 94 3.0 8.0 0.00 0.00 0.00 35 1016.0
20190423221608 84 104 3.0 6.0 0.00 0.00 0.00 37 1015.8
20190423220138 85 82 3.0 7.0 0.00 0.00 0.00 35 1015.8
20190423214607 85 82 4.0 9.0 0.00 0.00 0.00 35 1016.0
20190423213046 85 58 7.0 13.0 0.00 0.00 0.00 34 1015.9
20190423211552 85 65 6.0 13.0 0.00 0.00 0.00 34 1015.9
20190423210100 87 76 4.0 10.0 0.00 0.00 0.00 32 1016.0
20190423204543 86 51 1.0 10.0 0.00 0.00 0.00 34 1016.1
20190423203103 87 70 6.0 12.0 0.00 0.00 0.00 32 1016.1
20190423201553 87 64 3.0 6.0 0.00 0.00 0.00 34 1016.3
20190423200047 84 277 3.0 6.0 0.00 0.00 0.00 34 1016.6
20190423194531 84 289 4.0 8.0 0.00 0.00 0.00 34 1016.7
20190423193041 84 56 3.0 5.0 0.00 0.00 0.00 35 1016.8
20190423191533 84 65 8.0 15.0 0.00 0.00 0.00 36 1017.0
20190423190031 82 324 4.0 10.0 0.00 0.00 0.00 36 1017.2
20190423184522 84 36 3.0 10.0 0.00 0.00 0.00 36 1017.6
20190423183029 83 56 7.0 13.0 0.00 0.00 0.00 33 1017.8